Grindstone, PA (15442)

12:22 AM EDT on October 21, 2014 (GMT -0400)
Dunbar | Change Station
CLOSE
Current Station
Personal Weather Station
Location: Dunbar, PA
Elevation: 321 m
Nearby Weather Stations

Elev 321 m 40.00 °N, 79.69 °W | Updated 4 minutes ago

Overcast
Overcast
10.2 °C
Feels Like 10.2 °C
N
6.1
Wind Variable Wind from South
Gusts 6.1 km/h

Today
High -- | Low -- °C
--% Chance of Precip.
Yesterday
High -- | Low -- °C
Precip. -- mm
7:36 AM 6:31 PM
Waning Crescent, 7% visible
Pressure 1012 hPa
Visibility 16.1 kilometers
Clouds Overcast 1676 m
Dew Point 10 °C
Humidity 98%
Rainfall 0 mm
Snow Depth Not available.
UV 0 out of 12
Pollen .90 out of 12
Air Quality Not available.
Flu Activity Sporadic
METAR KAGC 210353Z AUTO 18005KT 10SM OVC055 10/07 A2986 RMK AO2 RAE15 SLP118 P0000 T01000067 TSNO

More Conditions Fewer Conditions

Pressure 1012 hPa
Visibility 16.1 kilometers
Clouds Overcast 1676 m
Dew Point 10 °C
Humidity 98%
Rainfall 0 mm
Snow Depth Not available.
UV 0 out of 12
Pollen .90 out of 12
Air Quality Not available.
Flu Activity Sporadic
METAR KAGC 210353Z AUTO 18005KT 10SM OVC055 10/07 A2986 RMK AO2 RAE15 SLP118 P0000 T01000067 TSNO

More Conditions Fewer Conditions

10-Day Weather Forecast

Almanac

Astronomy

Oct. 21, 2014 Rise Set
Actual Time 7:36 AM EDT 6:31 PM EDT
Civil Twilight 7:08 AM EDT 6:58 PM EDT
Nautical Twilight 6:37 AM EDT 7:30 PM EDT
Astronomical Twilight 6:05 AM EDT 8:01 PM EDT
Moon 5:18 AM EDT 5:24 PM EDT
Length of Visible Light 11h 49m
Length of Day
10h 54m
Tomorrow will be 2m 28s shorter.
Waning Crescent, 7% of the Moon is Illuminated
Today
Waning Crescent
Oct 23
New
Oct 30
First Quarter
Nov 6
Full
Nov 14
Last Quarter

Today's Extremes

State Highs State Lows

Community

WunderPhotos

Upload Photos

1,763,608 photos uploaded!

Nearby

Snow Depth

Station Depth Elevation
No new snow has been reported.

Earthquake Activity

City Distance Mag. Time & Date
No recent earthquake activity has been reported nearby.
Minimum magnitude displayed is 2.5.

Coastal Water Temperatures

Place Temperature
No Stations Reporting

Nearby Weather Stations